Time;durP1;ratioP1;P1;durP2;ratioP2;P2;SDS_P1;SDS_P2;PMS_P1;PMS_P2;Temp;Humidity;BMP_temperature;BMP_pressure;BME280_temperature;BME280_humidity;BME280_pressure;Samples;Min_cycle;Max_cycle;Signal;HPM_P1;HPM_P2
2024/02/21 00:02:02;;;;;;;9.00;3.72;;;;;;;;;;5030945;28;20053;-78
2024/02/21 00:04:29;;;;;;;11.13;4.20;;;;;;;;;;5022401;28;20545;-79
2024/02/21 00:06:56;;;;;;;9.85;3.80;;;;;;;;;;5058302;28;20052;-79
2024/02/21 00:09:22;;;;;;;7.35;3.33;;;;;;;;;;5040613;28;20053;-79
2024/02/21 00:11:49;;;;;;;7.18;2.85;;;;;;;;;;5037252;28;20071;-79
2024/02/21 00:14:16;;;;;;;8.52;3.58;;;;;;;;;;5057568;28;20068;-80
2024/02/21 00:16:43;;;;;;;10.27;3.50;;;;;;;;;;5023278;28;20495;-78
2024/02/21 00:19:09;;;;;;;9.50;3.25;;;;;;;;;;5040214;28;20053;-78
2024/02/21 00:21:36;;;;;;;8.00;3.22;;;;;;;;;;5012437;28;20064;-78
2024/02/21 00:24:03;;;;;;;12.05;2.90;;;;;;;;;;5056960;28;20122;-78
2024/02/21 00:26:29;;;;;;;9.40;3.55;;;;;;;;;;5041637;28;20098;-78
2024/02/21 00:28:56;;;;;;;9.25;3.53;;;;;;;;;;5055379;28;20071;-77
2024/02/21 00:31:23;;;;;;;10.63;3.35;;;;;;;;;;5035924;28;20046;-77
2024/02/21 00:33:50;;;;;;;6.30;3.25;;;;;;;;;;5035895;28;20128;-77
2024/02/21 00:36:17;;;;;;;11.15;3.55;;;;;;;;;;5033228;28;20124;-79
2024/02/21 00:38:44;;;;;;;8.57;3.30;;;;;;;;;;5040034;28;20049;-78
2024/02/21 00:41:11;;;;;;;7.57;3.30;;;;;;;;;;5027423;28;20124;-78
2024/02/21 00:43:37;;;;;;;13.30;4.28;;;;;;;;;;5039199;28;20049;-78
2024/02/21 00:46:05;;;;;;;10.65;3.33;;;;;;;;;;5008830;28;20478;-78
2024/02/21 00:48:32;;;;;;;8.07;3.42;;;;;;;;;;5055510;28;20118;-78
2024/02/21 00:50:59;;;;;;;14.02;3.50;;;;;;;;;;5037766;28;20080;-78
2024/02/21 00:53:25;;;;;;;9.73;3.67;;;;;;;;;;5022540;28;20045;-77
2024/02/21 00:55:52;;;;;;;10.40;3.10;;;;;;;;;;5057324;28;20060;-78
2024/02/21 00:58:19;;;;;;;8.32;3.08;;;;;;;;;;5038730;28;20049;-78
2024/02/21 01:00:46;;;;;;;8.02;3.10;;;;;;;;;;5035504;28;20042;-78
2024/02/21 01:03:13;;;;;;;10.40;3.42;;;;;;;;;;5037447;28;20140;-78
2024/02/21 01:05:40;;;;;;;9.88;3.15;;;;;;;;;;5033706;28;20049;-79
2024/02/21 01:08:07;;;;;;;7.22;3.00;;;;;;;;;;5036549;28;20056;-78
2024/02/21 01:10:34;;;;;;;12.80;3.10;;;;;;;;;;5052950;28;20103;-79
2024/02/21 01:13:01;;;;;;;8.18;2.95;;;;;;;;;;5013030;28;20088;-78
2024/02/21 01:15:27;;;;;;;11.93;3.42;;;;;;;;;;5028215;28;20045;-78
2024/02/21 01:17:54;;;;;;;8.48;2.88;;;;;;;;;;5034678;28;20049;-78
2024/02/21 01:20:21;;;;;;;6.95;2.90;;;;;;;;;;5031879;28;20092;-79
2024/02/21 01:22:48;;;;;;;5.68;2.58;;;;;;;;;;5036128;28;20545;-79
2024/02/21 01:25:15;;;;;;;10.10;2.97;;;;;;;;;;5051836;28;20084;-79
2024/02/21 01:27:42;;;;;;;11.07;3.47;;;;;;;;;;5062410;28;20041;-77
2024/02/21 01:30:10;;;;;;;11.38;3.40;;;;;;;;;;5062466;28;20025;-77
2024/02/21 01:32:37;;;;;;;9.65;3.25;;;;;;;;;;5046376;28;20056;-77
2024/02/21 01:35:04;;;;;;;7.78;3.03;;;;;;;;;;5027956;28;20132;-77
2024/02/21 01:37:31;;;;;;;12.02;3.55;;;;;;;;;;5036863;28;20060;-77
2024/02/21 01:39:58;;;;;;;9.00;3.28;;;;;;;;;;5053484;28;20053;-77
2024/02/21 01:42:24;;;;;;;7.93;2.53;;;;;;;;;;5031382;28;20049;-77
2024/02/21 01:44:51;;;;;;;10.50;3.40;;;;;;;;;;5048289;28;20075;-77
2024/02/21 01:47:18;;;;;;;5.00;2.45;;;;;;;;;;5034559;28;20057;-79
2024/02/21 01:49:45;;;;;;;10.77;3.83;;;;;;;;;;5016592;28;20118;-79
2024/02/21 01:52:11;;;;;;;9.60;3.10;;;;;;;;;;5034858;28;20052;-79
2024/02/21 01:54:38;;;;;;;6.25;2.70;;;;;;;;;;5035358;28;20152;-79
2024/02/21 01:57:05;;;;;;;13.48;2.78;;;;;;;;;;5053957;28;20049;-80
2024/02/21 01:59:32;;;;;;;9.10;2.95;;;;;;;;;;5054347;28;20049;-80
2024/02/21 02:01:58;;;;;;;8.13;3.00;;;;;;;;;;5070512;28;20048;-80
2024/02/21 02:04:26;;;;;;;12.13;3.47;;;;;;;;;;5022220;28;20068;-79
2024/02/21 02:06:54;;;;;;;9.90;4.18;;;;;;;;;;5036649;28;20049;-79
2024/02/21 02:09:21;;;;;;;9.52;3.17;;;;;;;;;;5029041;28;20088;-79
2024/02/21 02:11:47;;;;;;;10.95;4.15;;;;;;;;;;5047673;28;20049;-79
2024/02/21 02:14:14;;;;;;;17.80;4.38;;;;;;;;;;5036162;28;20529;-79
2024/02/21 02:16:41;;;;;;;9.63;3.28;;;;;;;;;;5056808;28;20445;-78
2024/02/21 02:19:12;;;;;;;9.15;3.25;;;;;;;;;;5039048;28;20049;-80
2024/02/21 02:21:39;;;;;;;8.60;2.90;;;;;;;;;;5054769;28;20041;-78
2024/02/21 02:24:06;;;;;;;8.63;2.78;;;;;;;;;;5038451;28;20049;-79
2024/02/21 02:26:33;;;;;;;6.05;2.60;;;;;;;;;;5055009;28;20057;-79
2024/02/21 02:29:01;;;;;;;4.85;2.78;;;;;;;;;;5039332;28;20256;-79
2024/02/21 02:31:28;;;;;;;9.43;3.55;;;;;;;;;;5047193;28;20061;-79
2024/02/21 02:33:55;;;;;;;10.82;3.47;;;;;;;;;;5054909;28;20055;-79
2024/02/21 02:36:22;;;;;;;8.48;2.80;;;;;;;;;;5037876;28;20099;-79
2024/02/21 02:38:48;;;;;;;9.15;3.45;;;;;;;;;;5056398;28;20068;-79
2024/02/21 02:41:15;;;;;;;6.68;2.50;;;;;;;;;;5055470;28;20111;-79
2024/02/21 02:43:42;;;;;;;8.88;2.85;;;;;;;;;;5052521;28;20065;-79
2024/02/21 02:46:08;;;;;;;6.45;2.35;;;;;;;;;;5055716;28;20592;-80
2024/02/21 02:48:35;;;;;;;5.60;2.50;;;;;;;;;;5054480;28;20057;-80
2024/02/21 02:51:16;;;;;;;10.85;2.83;;;;;;;;;;4981600;28;20050;-80
2024/02/21 02:53:42;;;;;;;10.30;4.00;;;;;;;;;;4979853;28;20054;-80
2024/02/21 02:56:14;;;;;;;7.00;2.90;;;;;;;;;;4995090;28;20070;-80
2024/02/21 02:58:40;;;;;;;9.63;2.60;;;;;;;;;;4990941;28;20055;-80
2024/02/21 03:01:07;;;;;;;9.80;3.20;;;;;;;;;;4959293;28;20146;-81
2024/02/21 03:03:34;;;;;;;8.02;3.08;;;;;;;;;;4978642;28;20081;-80
2024/02/21 03:06:01;;;;;;;8.18;2.55;;;;;;;;;;4978970;28;20238;-79
2024/02/21 03:08:28;;;;;;;6.13;2.53;;;;;;;;;;4993200;28;20109;-79
2024/02/21 03:10:55;;;;;;;8.30;3.47;;;;;;;;;;5009632;28;20058;-80
2024/02/21 03:13:22;;;;;;;7.22;3.58;;;;;;;;;;4982973;28;20089;-80
2024/02/21 03:15:48;;;;;;;6.63;3.20;;;;;;;;;;4966802;28;20052;-80
2024/02/21 03:18:15;;;;;;;8.60;3.30;;;;;;;;;;4994532;28;20657;-78
2024/02/21 03:20:42;;;;;;;6.97;2.92;;;;;;;;;;4992195;28;20050;-77
2024/02/21 03:23:08;;;;;;;8.73;2.72;;;;;;;;;;5050170;28;20075;-78
2024/02/21 03:25:35;;;;;;;12.52;4.03;;;;;;;;;;5035514;28;20049;-78
2024/02/21 03:28:02;;;;;;;9.98;3.03;;;;;;;;;;5053783;28;20052;-78
2024/02/21 03:30:28;;;;;;;10.15;3.15;;;;;;;;;;5021329;28;20201;-78
2024/02/21 03:32:55;;;;;;;9.23;3.22;;;;;;;;;;5037649;28;20469;-78
2024/02/21 03:35:22;;;;;;;6.85;2.78;;;;;;;;;;5036935;28;20099;-78
2024/02/21 03:37:48;;;;;;;8.32;3.60;;;;;;;;;;5037394;28;20050;-78
2024/02/21 03:40:15;;;;;;;7.95;3.10;;;;;;;;;;5037663;28;20041;-78
2024/02/21 03:42:42;;;;;;;10.15;3.90;;;;;;;;;;5038002;28;20179;-78
2024/02/21 03:45:09;;;;;;;8.25;3.78;;;;;;;;;;5037837;28;20469;-78
2024/02/21 03:47:36;;;;;;;6.72;3.35;;;;;;;;;;5038013;28;20052;-78
2024/02/21 03:50:02;;;;;;;10.68;3.40;;;;;;;;;;5021678;28;20065;-79
2024/02/21 03:52:29;;;;;;;8.52;3.28;;;;;;;;;;5022532;28;20088;-79
2024/02/21 03:54:56;;;;;;;7.28;3.63;;;;;;;;;;5023629;28;20526;-79
2024/02/21 03:57:23;;;;;;;6.45;3.60;;;;;;;;;;5056365;28;20045;-79
2024/02/21 03:59:50;;;;;;;8.70;4.65;;;;;;;;;;5039612;28;20045;-79
2024/02/21 04:02:17;;;;;;;8.55;2.85;;;;;;;;;;5038329;28;20052;-78
2024/02/21 04:04:46;;;;;;;8.23;2.97;;;;;;;;;;5036345;28;20134;-78
2024/02/21 04:07:14;;;;;;;8.25;3.20;;;;;;;;;;5037036;28;20103;-78
2024/02/21 04:09:40;;;;;;;7.68;3.65;;;;;;;;;;5036003;28;20057;-77
2024/02/21 04:12:08;;;;;;;7.15;2.92;;;;;;;;;;5030924;28;20107;-78
2024/02/21 04:14:34;;;;;;;6.07;3.45;;;;;;;;;;5036627;28;20491;-78
2024/02/21 04:17:01;;;;;;;7.53;2.83;;;;;;;;;;5036709;28;20053;-78
2024/02/21 04:19:28;;;;;;;7.13;3.25;;;;;;;;;;5037140;28;20053;-78
2024/02/21 04:21:55;;;;;;;6.03;3.20;;;;;;;;;;5053805;28;20045;-78
2024/02/21 04:24:21;;;;;;;9.25;2.92;;;;;;;;;;5037080;28;20106;-78
2024/02/21 04:26:49;;;;;;;8.55;2.70;;;;;;;;;;5020808;28;20080;-78
2024/02/21 04:29:15;;;;;;;5.63;2.78;;;;;;;;;;5036302;28;20067;-78
2024/02/21 04:31:42;;;;;;;8.57;2.50;;;;;;;;;;5021988;28;20418;-78
2024/02/21 04:34:09;;;;;;;6.25;2.47;;;;;;;;;;5039198;28;20052;-78
2024/02/21 04:36:35;;;;;;;7.03;2.33;;;;;;;;;;5027828;28;20049;-79
2024/02/21 04:39:02;;;;;;;6.55;2.90;;;;;;;;;;5045246;28;20057;-79
2024/02/21 04:41:29;;;;;;;8.27;2.88;;;;;;;;;;5028957;28;20049;-79
2024/02/21 04:43:55;;;;;;;11.80;2.65;;;;;;;;;;5064024;28;20099;-80
2024/02/21 04:46:22;;;;;;;9.25;2.83;;;;;;;;;;5060027;28;20032;-79
2024/02/21 04:48:49;;;;;;;7.13;2.42;;;;;;;;;;5060077;28;20059;-80
2024/02/21 04:51:15;;;;;;;5.10;2.50;;;;;;;;;;5070844;28;20049;-79
2024/02/21 04:53:42;;;;;;;9.15;2.72;;;;;;;;;;5042936;28;20083;-79
2024/02/21 04:56:09;;;;;;;7.30;3.22;;;;;;;;;;5024026;28;20053;-77
2024/02/21 04:58:39;;;;;;;5.18;2.50;;;;;;;;;;5040388;28;20503;-78
2024/02/21 05:01:07;;;;;;;13.57;3.25;;;;;;;;;;5040480;28;20053;-78
2024/02/21 05:03:34;;;;;;;6.53;2.90;;;;;;;;;;5024993;28;20140;-79
2024/02/21 05:06:01;;;;;;;7.70;3.05;;;;;;;;;;5041858;28;20052;-80
2024/02/21 05:08:27;;;;;;;6.03;2.88;;;;;;;;;;5058691;28;20053;-79
2024/02/21 05:10:54;;;;;;;8.13;2.97;;;;;;;;;;5056083;28;20151;-79
2024/02/21 05:13:21;;;;;;;7.25;2.83;;;;;;;;;;5039901;28;20178;-79
2024/02/21 05:15:48;;;;;;;6.45;2.75;;;;;;;;;;5023843;28;20052;-78
2024/02/21 05:18:14;;;;;;;12.95;4.35;;;;;;;;;;5040392;28;20123;-78
2024/02/21 05:20:41;;;;;;;12.88;3.92;;;;;;;;;;5052946;28;20050;-77
2024/02/21 05:23:08;;;;;;;14.60;5.40;;;;;;;;;;5039795;28;20045;-78
2024/02/21 05:25:35;;;;;;;12.70;6.38;;;;;;;;;;5057900;28;20060;-79
2024/02/21 05:28:03;;;;;;;12.20;6.45;;;;;;;;;;5040432;28;20411;-78
2024/02/21 05:30:29;;;;;;;12.93;4.15;;;;;;;;;;5024839;28;20053;-79
2024/02/21 05:32:56;;;;;;;4.95;2.55;;;;;;;;;;5040585;28;20072;-78
2024/02/21 05:35:27;;;;;;;5.93;2.63;;;;;;;;;;5055818;28;20132;-78
2024/02/21 05:37:54;;;;;;;6.82;2.90;;;;;;;;;;5038957;28;20053;-78
2024/02/21 05:40:21;;;;;;;10.55;2.75;;;;;;;;;;5023119;28;20048;-78
2024/02/21 05:42:47;;;;;;;4.90;2.30;;;;;;;;;;5039246;28;20056;-78
2024/02/21 05:45:15;;;;;;;4.85;2.83;;;;;;;;;;5038432;28;20060;-78
2024/02/21 05:47:42;;;;;;;6.55;2.30;;;;;;;;;;5032655;28;20068;-77
2024/02/21 05:50:09;;;;;;;6.95;2.60;;;;;;;;;;5036571;28;20057;-77
2024/02/21 05:52:36;;;;;;;6.20;3.03;;;;;;;;;;5037029;28;20075;-77
2024/02/21 05:55:03;;;;;;;6.75;2.08;;;;;;;;;;5039805;28;20076;-78
2024/02/21 05:57:29;;;;;;;10.80;2.95;;;;;;;;;;5022519;28;20055;-76
2024/02/21 05:59:56;;;;;;;9.07;2.53;;;;;;;;;;5042741;28;20045;-76
2024/02/21 06:02:22;;;;;;;4.40;2.20;;;;;;;;;;5035483;28;20084;-76
2024/02/21 06:04:49;;;;;;;7.68;2.92;;;;;;;;;;5037317;28;20481;-77
2024/02/21 06:07:16;;;;;;;5.80;1.85;;;;;;;;;;5022359;28;20057;-77
2024/02/21 06:09:44;;;;;;;6.28;2.50;;;;;;;;;;5037142;28;20044;-77
2024/02/21 06:12:10;;;;;;;7.90;2.42;;;;;;;;;;5035904;28;20430;-78
2024/02/21 06:14:37;;;;;;;8.23;2.90;;;;;;;;;;5018989;28;20503;-77
2024/02/21 06:17:04;;;;;;;5.03;1.90;;;;;;;;;;5035018;28;20075;-77
2024/02/21 06:19:31;;;;;;;6.00;2.97;;;;;;;;;;5034450;28;20080;-77
2024/02/21 06:21:58;;;;;;;8.20;2.40;;;;;;;;;;5035071;28;20045;-77
2024/02/21 06:24:24;;;;;;;5.95;2.83;;;;;;;;;;5035588;28;20080;-78
2024/02/21 06:26:51;;;;;;;8.20;2.55;;;;;;;;;;5053024;28;20055;-82
2024/02/21 06:29:18;;;;;;;6.88;2.40;;;;;;;;;;5017149;28;20131;-78
2024/02/21 06:31:44;;;;;;;9.20;2.58;;;;;;;;;;5033651;28;20071;-78
2024/02/21 06:34:11;;;;;;;6.10;2.72;;;;;;;;;;5033385;28;20053;-78
2024/02/21 06:36:38;;;;;;;9.10;2.17;;;;;;;;;;5035661;28;20049;-78
2024/02/21 06:39:07;;;;;;;8.50;2.10;;;;;;;;;;5033139;28;20452;-79
2024/02/21 06:41:34;;;;;;;5.55;2.22;;;;;;;;;;5038261;28;20053;-79
2024/02/21 06:44:01;;;;;;;5.45;1.83;;;;;;;;;;5041717;28;20103;-80
2024/02/21 06:46:29;;;;;;;12.05;2.50;;;;;;;;;;5053137;28;20547;-82
2024/02/21 06:48:56;;;;;;;8.07;2.38;;;;;;;;;;5034095;28;20422;-77
2024/02/21 06:51:24;;;;;;;8.18;2.63;;;;;;;;;;5033538;28;20044;-77
2024/02/21 06:53:52;;;;;;;6.07;2.40;;;;;;;;;;5035649;28;20776;-77
2024/02/21 06:56:19;;;;;;;6.25;2.63;;;;;;;;;;5017135;28;20095;-77
2024/02/21 06:58:45;;;;;;;7.75;2.92;;;;;;;;;;5031994;28;20079;-77
2024/02/21 07:01:12;;;;;;;7.78;2.40;;;;;;;;;;5049580;28;20045;-76
2024/02/21 07:03:39;;;;;;;7.30;2.60;;;;;;;;;;5050005;28;20059;-78
2024/02/21 07:06:06;;;;;;;6.80;2.58;;;;;;;;;;5034333;28;20057;-77
2024/02/21 07:08:33;;;;;;;5.45;2.10;;;;;;;;;;5033755;28;20414;-77
2024/02/21 07:11:00;;;;;;;7.53;2.20;;;;;;;;;;5033570;28;20086;-76
2024/02/21 07:13:26;;;;;;;3.97;2.33;;;;;;;;;;5031597;28;20044;-76
2024/02/21 07:15:53;;;;;;;8.48;3.65;;;;;;;;;;5015252;28;20102;-76
2024/02/21 07:18:20;;;;;;;5.72;2.42;;;;;;;;;;5031663;28;20090;-76
2024/02/21 07:20:47;;;;;;;5.28;2.97;;;;;;;;;;5031870;28;20136;-75
2024/02/21 07:23:14;;;;;;;6.97;2.70;;;;;;;;;;5031822;28;20126;-76
2024/02/21 07:25:40;;;;;;;8.13;2.88;;;;;;;;;;5032025;28;20465;-76
2024/02/21 07:28:07;;;;;;;5.78;2.05;;;;;;;;;;5031709;28;20053;-75
2024/02/21 07:30:34;;;;;;;3.33;2.33;;;;;;;;;;5035897;28;20497;-75
2024/02/21 07:33:01;;;;;;;13.52;2.75;;;;;;;;;;5058241;28;20033;-74
2024/02/21 07:35:27;;;;;;;5.40;2.30;;;;;;;;;;5039430;28;20047;-75
2024/02/21 07:37:54;;;;;;;7.68;2.83;;;;;;;;;;5055207;28;20101;-76
2024/02/21 07:40:21;;;;;;;10.52;2.35;;;;;;;;;;5031903;28;20045;-76
2024/02/21 07:42:48;;;;;;;6.07;2.65;;;;;;;;;;5049049;28;20053;-76
2024/02/21 07:45:18;;;;;;;6.10;2.17;;;;;;;;;;5032003;28;20088;-76
2024/02/21 07:47:47;;;;;;;6.85;2.67;;;;;;;;;;5029868;28;20100;-77
2024/02/21 07:50:13;;;;;;;4.50;2.00;;;;;;;;;;5031378;28;20144;-77
2024/02/21 07:52:40;;;;;;;6.18;2.53;;;;;;;;;;5015484;28;20061;-77
2024/02/21 07:55:07;;;;;;;6.38;2.97;;;;;;;;;;5031135;28;20053;-78
2024/02/21 07:57:34;;;;;;;8.05;2.63;;;;;;;;;;5016885;28;20213;-77
2024/02/21 08:00:01;;;;;;;8.63;2.53;;;;;;;;;;5031575;28;20446;-77
2024/02/21 08:02:27;;;;;;;8.18;2.83;;;;;;;;;;5029164;28;20134;-77
2024/02/21 08:04:54;;;;;;;8.30;3.08;;;;;;;;;;5049049;28;20049;-76
2024/02/21 08:07:21;;;;;;;9.70;3.05;;;;;;;;;;5032414;28;20103;-81
2024/02/21 08:09:48;;;;;;;12.27;2.58;;;;;;;;;;5031554;28;20194;-79
2024/02/21 08:12:14;;;;;;;6.00;2.15;;;;;;;;;;5039649;28;20128;-80
2024/02/21 08:14:41;;;;;;;9.60;2.85;;;;;;;;;;5050988;28;20041;-79
2024/02/21 08:17:08;;;;;;;4.25;2.05;;;;;;;;;;5041273;28;20045;-80
2024/02/21 08:19:34;;;;;;;10.07;2.20;;;;;;;;;;5038829;28;20061;-80
2024/02/21 08:22:01;;;;;;;10.15;2.45;;;;;;;;;;5052964;28;20052;-80
2024/02/21 08:24:28;;;;;;;4.32;1.67;;;;;;;;;;5044798;28;20138;-79
2024/02/21 08:26:54;;;;;;;5.22;2.35;;;;;;;;;;5038126;28;20056;-80
2024/02/21 08:29:21;;;;;;;5.30;2.08;;;;;;;;;;5058987;28;20710;-80
2024/02/21 08:31:48;;;;;;;6.22;2.03;;;;;;;;;;5025120;28;20055;-82
2024/02/21 08:34:15;;;;;;;5.75;1.88;;;;;;;;;;5055712;28;20135;-76
2024/02/21 08:36:43;;;;;;;6.40;2.03;;;;;;;;;;5021360;28;20081;-81
2024/02/21 08:39:09;;;;;;;5.45;1.80;;;;;;;;;;5057622;28;20384;-81
2024/02/21 08:41:36;;;;;;;5.53;1.90;;;;;;;;;;5041791;28;20075;-80
2024/02/21 08:44:28;;;;;;;11.70;2.47;;;;;;;;;;5029282;28;20122;-77
2024/02/21 08:46:54;;;;;;;;;;;;;;;;;;5053812;28;20525;-77
2024/02/21 08:49:21;;;;;;;6.80;2.20;;;;;;;;;;5036007;28;19933;-77
2024/02/21 08:51:48;;;;;;;7.40;2.30;;;;;;;;;;5036195;28;20076;-77
2024/02/21 08:54:15;;;;;;;4.93;2.30;;;;;;;;;;5053686;28;20049;-77
2024/02/21 08:56:42;;;;;;;5.13;2.25;;;;;;;;;;5028007;28;20053;-77
2024/02/21 08:59:09;;;;;;;5.57;2.75;;;;;;;;;;5019637;28;20256;-77
2024/02/21 09:01:35;;;;;;;9.18;2.65;;;;;;;;;;5035934;28;20049;-76
2024/02/21 09:04:03;;;;;;;4.88;2.17;;;;;;;;;;5036597;28;20064;-77
2024/02/21 09:06:30;;;;;;;9.75;2.45;;;;;;;;;;5034891;28;20111;-77
2024/02/21 09:08:57;;;;;;;8.63;2.55;;;;;;;;;;5018582;28;20087;-77
2024/02/21 09:11:24;;;;;;;6.07;2.33;;;;;;;;;;5035805;28;20127;-77
2024/02/21 09:13:51;;;;;;;7.05;2.80;;;;;;;;;;5035407;28;20045;-77
2024/02/21 09:16:18;;;;;;;7.53;2.28;;;;;;;;;;5035844;28;20055;-77
2024/02/21 09:18:46;;;;;;;5.93;1.88;;;;;;;;;;5053197;28;20551;-77
2024/02/21 09:21:13;;;;;;;5.25;2.20;;;;;;;;;;5019933;28;20131;-77
2024/02/21 09:23:39;;;;;;;4.72;2.35;;;;;;;;;;5020870;28;20048;-77
2024/02/21 09:26:06;;;;;;;11.23;3.30;;;;;;;;;;5053463;28;20561;-77
2024/02/21 09:28:34;;;;;;;7.78;2.40;;;;;;;;;;5019162;28;20123;-77
2024/02/21 09:31:01;;;;;;;6.95;2.55;;;;;;;;;;5035961;28;20053;-77
2024/02/21 09:33:28;;;;;;;4.45;2.22;;;;;;;;;;5018996;28;20053;-78
2024/02/21 09:35:58;;;;;;;7.60;2.10;;;;;;;;;;5053155;28;20128;-76
2024/02/21 09:38:25;;;;;;;6.88;1.95;;;;;;;;;;5035508;28;20136;-77
2024/02/21 09:40:54;;;;;;;7.38;2.05;;;;;;;;;;5035868;28;20087;-77
2024/02/21 09:43:20;;;;;;;5.68;2.00;;;;;;;;;;5050298;28;20041;-77
2024/02/21 09:45:48;;;;;;;5.03;2.22;;;;;;;;;;5053282;28;20056;-77
2024/02/21 09:48:34;;;;;;;5.43;2.30;;;;;;;;;;5018939;28;20049;-77
2024/02/21 09:51:02;;;;;;;4.47;1.90;;;;;;;;;;5052057;28;20045;-77
2024/02/21 09:53:28;;;;;;;8.80;2.47;;;;;;;;;;5051447;28;20056;-77
2024/02/21 09:55:55;;;;;;;5.90;2.40;;;;;;;;;;5035204;28;20073;-77
2024/02/21 09:58:22;;;;;;;7.13;1.88;;;;;;;;;;5018636;28;20140;-75
2024/02/21 10:00:49;;;;;;;6.90;2.78;;;;;;;;;;5035305;28;20049;-77
2024/02/21 10:03:16;;;;;;;4.97;2.08;;;;;;;;;;5034641;28;20053;-77
2024/02/21 10:05:47;;;;;;;3.78;1.77;;;;;;;;;;5034788;28;20053;-77
2024/02/21 10:08:14;;;;;;;5.57;2.17;;;;;;;;;;5052024;28;20052;-77
2024/02/21 10:10:44;;;;;;;5.22;1.92;;;;;;;;;;5052348;28;20110;-77
2024/02/21 10:13:11;;;;;;;6.60;2.03;;;;;;;;;;5017325;28;20076;-77
2024/02/21 10:15:38;;;;;;;5.55;1.88;;;;;;;;;;5029700;28;20054;-77
2024/02/21 10:18:06;;;;;;;6.38;1.70;;;;;;;;;;5049094;28;20048;-77
2024/02/21 10:20:34;;;;;;;5.80;1.95;;;;;;;;;;5032156;28;20053;-77
2024/02/21 10:23:09;;;;;;;6.95;1.65;;;;;;;;;;5048585;28;20391;-77
2024/02/21 10:25:45;;;;;;;3.10;1.90;;;;;;;;;;5034903;28;20059;-77
2024/02/21 10:28:12;;;;;;;4.20;1.40;;;;;;;;;;5051271;28;20059;-77
2024/02/21 10:30:39;;;;;;;3.55;1.55;;;;;;;;;;5017936;28;20060;-77
2024/02/21 10:33:05;;;;;;;4.40;1.60;;;;;;;;;;5033923;28;20461;-77
2024/02/21 10:35:32;;;;;;;5.32;1.30;;;;;;;;;;5034348;28;20058;-77
2024/02/21 10:37:59;;;;;;;8.32;1.20;;;;;;;;;;5033868;28;20049;-77
2024/02/21 10:40:30;;;;;;;3.42;1.20;;;;;;;;;;5050806;28;20052;-77
2024/02/21 10:43:01;;;;;;;5.20;1.35;;;;;;;;;;5033992;28;20469;-77
2024/02/21 10:45:34;;;;;;;8.27;1.70;;;;;;;;;;5016696;28;20049;-77
2024/02/21 10:48:13;;;;;;;8.10;1.95;;;;;;;;;;5028119;28;20098;-77
2024/02/21 10:50:46;;;;;;;5.35;2.03;;;;;;;;;;5033379;28;20052;-77
2024/02/21 10:53:36;;;;;;;5.15;1.92;;;;;;;;;;5053564;28;20430;-78
2024/02/21 10:56:23;;;;;;;4.57;1.35;;;;;;;;;;5017094;28;20049;-77
2024/02/21 10:58:49;;;;;;;5.18;1.55;;;;;;;;;;5035360;28;20717;-77
2024/02/21 11:01:17;;;;;;;6.00;1.25;;;;;;;;;;5017829;28;20124;-77
2024/02/21 11:03:45;;;;;;;2.40;1.13;;;;;;;;;;5033963;28;20060;-77
2024/02/21 11:06:12;;;;;;;2.83;1.20;;;;;;;;;;5034052;28;20422;-77
2024/02/21 11:08:39;;;;;;;4.70;1.25;;;;;;;;;;5050394;28;20060;-77
2024/02/21 11:11:06;;;;;;;4.07;2.10;;;;;;;;;;5049900;28;20216;-77
2024/02/21 11:13:37;;;;;;;7.65;1.30;;;;;;;;;;5051316;28;20057;-77
2024/02/21 11:16:08;;;;;;;8.30;1.80;;;;;;;;;;5017301;28;20041;-77
2024/02/21 11:18:36;;;;;;;5.25;1.45;;;;;;;;;;5017457;28;20052;-77
2024/02/21 11:21:04;;;;;;;7.93;1.13;;;;;;;;;;5013869;28;20053;-77
2024/02/21 11:23:31;;;;;;;4.75;1.52;;;;;;;;;;5033517;28;20052;-77
2024/02/21 11:26:08;;;;;;;6.85;2.13;;;;;;;;;;5050042;28;20057;-77
2024/02/21 11:28:36;;;;;;;4.32;1.40;;;;;;;;;;5033166;28;20507;-77
2024/02/21 11:31:10;;;;;;;3.15;1.48;;;;;;;;;;5029915;28;20673;-76
2024/02/21 11:33:39;;;;;;;5.05;1.60;;;;;;;;;;5049891;28;20053;-77
2024/02/21 11:36:06;;;;;;;4.32;1.15;;;;;;;;;;5048210;28;20414;-77
2024/02/21 11:38:33;;;;;;;5.03;2.03;;;;;;;;;;5033205;28;20051;-77
2024/02/21 11:40:59;;;;;;;4.35;1.17;;;;;;;;;;5047481;28;20046;-77
2024/02/21 11:43:26;;;;;;;4.18;1.48;;;;;;;;;;5033550;28;20052;-76
2024/02/21 11:46:03;;;;;;;5.18;1.42;;;;;;;;;;5017228;28;20136;-77
2024/02/21 11:48:31;;;;;;;5.28;1.30;;;;;;;;;;5025131;28;20063;-77
2024/02/21 11:50:58;;;;;;;2.47;1.00;;;;;;;;;;5016785;28;20147;-77
2024/02/21 11:53:27;;;;;;;2.58;0.82;;;;;;;;;;5033134;28;20112;-77
2024/02/21 11:55:55;;;;;;;3.45;1.13;;;;;;;;;;5033115;28;20080;-77
2024/02/21 11:58:22;;;;;;;3.70;1.05;;;;;;;;;;5034915;28;20059;-77
2024/02/21 12:00:49;;;;;;;6.97;1.25;;;;;;;;;;5035193;28;20106;-77
2024/02/21 12:03:16;;;;;;;4.45;0.90;;;;;;;;;;5036552;28;20060;-77
2024/02/21 12:05:42;;;;;;;3.58;0.90;;;;;;;;;;5037174;28;20065;-78
2024/02/21 12:08:09;;;;;;;6.72;2.40;;;;;;;;;;5036965;28;20053;-77
2024/02/21 12:10:36;;;;;;;11.32;3.92;;;;;;;;;;5036858;28;20099;-77
2024/02/21 12:13:07;;;;;;;9.13;3.10;;;;;;;;;;5036739;28;20053;-77
2024/02/21 12:15:34;;;;;;;10.30;3.42;;;;;;;;;;5053128;28;20487;-77
2024/02/21 12:18:01;;;;;;;7.88;2.10;;;;;;;;;;5036496;28;20499;-77
2024/02/21 12:20:27;;;;;;;3.95;1.83;;;;;;;;;;5028564;28;20515;-77
2024/02/21 12:22:54;;;;;;;4.70;1.70;;;;;;;;;;5020449;28;20155;-77
2024/02/21 12:25:22;;;;;;;4.97;1.48;;;;;;;;;;5020341;28;20045;-77
2024/02/21 12:27:49;;;;;;;1.92;1.00;;;;;;;;;;5053022;28;20049;-77
2024/02/21 12:30:16;;;;;;;3.13;0.90;;;;;;;;;;5054363;28;20110;-77
2024/02/21 12:32:43;;;;;;;4.00;1.10;;;;;;;;;;5019957;28;20054;-77
2024/02/21 12:35:09;;;;;;;1.38;0.80;;;;;;;;;;5036140;28;20534;-77
2024/02/21 12:37:37;;;;;;;2.72;1.23;;;;;;;;;;5022463;28;20570;-79
2024/02/21 12:40:06;;;;;;;2.50;0.98;;;;;;;;;;5040749;28;20072;-79
2024/02/21 12:42:33;;;;;;;3.15;1.10;;;;;;;;;;5040823;28;20049;-78
2024/02/21 12:45:00;;;;;;;2.72;0.93;;;;;;;;;;5037357;28;20168;-79
2024/02/21 12:47:27;;;;;;;4.53;0.98;;;;;;;;;;5013264;28;20052;-80
2024/02/21 12:49:53;;;;;;;3.05;1.38;;;;;;;;;;5036209;28;20056;-79
2024/02/21 12:52:20;;;;;;;2.42;1.05;;;;;;;;;;5037630;28;20072;-77
2024/02/21 12:54:47;;;;;;;3.15;1.20;;;;;;;;;;5034355;28;20103;-77
2024/02/21 12:57:14;;;;;;;2.30;0.75;;;;;;;;;;5034163;28;20110;-77
2024/02/21 12:59:41;;;;;;;2.58;1.17;;;;;;;;;;5030784;28;20053;-77
2024/02/21 13:02:08;;;;;;;4.15;1.60;;;;;;;;;;5034314;28;20461;-76
2024/02/21 13:04:35;;;;;;;4.18;1.08;;;;;;;;;;5018024;28;20122;-77
2024/02/21 13:07:02;;;;;;;3.83;1.02;;;;;;;;;;5034241;28;20045;-77
2024/02/21 13:09:28;;;;;;;2.75;0.75;;;;;;;;;;5030428;28;20119;-77
2024/02/21 13:11:55;;;;;;;3.85;1.13;;;;;;;;;;5034115;28;20056;-75
2024/02/21 13:14:22;;;;;;;4.82;1.27;;;;;;;;;;5034206;28;20166;-75
2024/02/21 13:16:49;;;;;;;2.40;0.90;;;;;;;;;;5057190;28;20068;-75
2024/02/21 13:19:17;;;;;;;1.58;0.70;;;;;;;;;;5048080;28;20135;-75
2024/02/21 13:21:44;;;;;;;2.53;0.90;;;;;;;;;;5046820;28;20674;-75
2024/02/21 13:24:11;;;;;;;3.95;1.20;;;;;;;;;;5033713;28;20072;-78
2024/02/21 13:26:38;;;;;;;2.60;1.13;;;;;;;;;;5034286;28;20061;-77
2024/02/21 13:29:04;;;;;;;5.95;1.38;;;;;;;;;;5017493;28;20102;-76
2024/02/21 13:31:31;;;;;;;3.67;1.13;;;;;;;;;;5033224;28;20077;-74
2024/02/21 13:33:58;;;;;;;7.53;2.00;;;;;;;;;;5017782;28;20081;-79
2024/02/21 13:36:26;;;;;;;3.97;1.40;;;;;;;;;;5034860;28;20045;-78
2024/02/21 13:38:53;;;;;;;5.05;1.42;;;;;;;;;;5010741;28;20111;-76
2024/02/21 13:41:22;;;;;;;4.10;1.13;;;;;;;;;;5013081;28;20076;-78
2024/02/21 13:43:48;;;;;;;2.75;1.08;;;;;;;;;;5017520;28;20056;-79
2024/02/21 13:46:15;;;;;;;3.75;1.42;;;;;;;;;;5034539;28;20120;-79
2024/02/21 13:48:42;;;;;;;1.90;0.73;;;;;;;;;;5019573;28;20049;-80
2024/02/21 13:51:09;;;;;;;2.92;1.02;;;;;;;;;;5050895;28;20044;-78
2024/02/21 13:53:35;;;;;;;1.63;0.70;;;;;;;;;;5033331;28;20049;-77
2024/02/21 13:56:02;;;;;;;1.40;0.73;;;;;;;;;;5033768;28;20388;-79
2024/02/21 13:58:29;;;;;;;2.10;1.00;;;;;;;;;;5018097;28;20049;-79
2024/02/21 14:00:56;;;;;;;2.33;0.85;;;;;;;;;;5051134;28;20049;-79
2024/02/21 14:03:25;;;;;;;1.63;1.00;;;;;;;;;;5036119;28;20126;-79
2024/02/21 14:05:52;;;;;;;3.25;1.27;;;;;;;;;;5020011;28;20111;-79
2024/02/21 14:08:19;;;;;;;2.00;0.90;;;;;;;;;;5051457;28;20115;-79
2024/02/21 14:10:46;;;;;;;4.78;1.13;;;;;;;;;;5013798;28;20107;-77
2024/02/21 14:13:13;;;;;;;2.08;0.90;;;;;;;;;;5032734;28;20063;-78
2024/02/21 14:15:42;;;;;;;3.15;0.73;;;;;;;;;;5032930;28;20103;-77
2024/02/21 14:18:09;;;;;;;1.35;0.68;;;;;;;;;;5015320;28;20521;-77
2024/02/21 14:20:37;;;;;;;1.92;1.00;;;;;;;;;;5011208;28;20053;-77
2024/02/21 14:23:04;;;;;;;2.30;0.75;;;;;;;;;;5032913;28;20057;-77
2024/02/21 14:25:33;;;;;;;3.95;1.10;;;;;;;;;;5016143;28;20507;-76
2024/02/21 14:28:00;;;;;;;3.28;0.90;;;;;;;;;;5017043;28;20087;-77
2024/02/21 14:30:27;;;;;;;1.83;0.88;;;;;;;;;;5030490;28;20533;-76
2024/02/21 14:32:54;;;;;;;2.38;1.00;;;;;;;;;;5032642;28;20057;-77
2024/02/21 14:35:21;;;;;;;1.65;0.70;;;;;;;;;;5048652;28;20057;-77
2024/02/21 14:37:52;;;;;;;2.38;0.80;;;;;;;;;;5016277;28;20577;-77
2024/02/21 14:40:20;;;;;;;0.98;0.70;;;;;;;;;;5014959;28;20048;-77
2024/02/21 14:42:54;;;;;;;1.80;0.70;;;;;;;;;;5075125;27;20392;-77